sensor_id;sensor_type;location;lat;lon;timestamp;P1;durP1;ratioP1;P2;durP2;ratioP2
62574;SDS011;53112;45.602;11.904;2023-04-03T00:01:41;4.93;;;2.83;;
62574;SDS011;53112;45.602;11.904;2023-04-03T00:04:07;4.25;;;2.88;;
62574;SDS011;53112;45.602;11.904;2023-04-03T00:06:33;4.75;;;3.20;;
62574;SDS011;53112;45.602;11.904;2023-04-03T00:09:00;4.43;;;3.00;;
62574;SDS011;53112;45.602;11.904;2023-04-03T00:11:26;4.15;;;3.00;;
62574;SDS011;53112;45.602;11.904;2023-04-03T00:13:52;4.50;;;3.00;;
62574;SDS011;53112;45.602;11.904;2023-04-03T00:16:17;3.65;;;2.70;;
62574;SDS011;53112;45.602;11.904;2023-04-03T00:18:43;3.55;;;2.75;;
62574;SDS011;53112;45.602;11.904;2023-04-03T00:21:10;4.57;;;3.25;;
62574;SDS011;53112;45.602;11.904;2023-04-03T00:23:38;4.78;;;3.35;;
62574;SDS011;53112;45.602;11.904;2023-04-03T00:26:04;5.90;;;3.13;;
62574;SDS011;53112;45.602;11.904;2023-04-03T00:28:30;4.72;;;3.25;;
62574;SDS011;53112;45.602;11.904;2023-04-03T00:30:55;4.43;;;3.00;;
62574;SDS011;53112;45.602;11.904;2023-04-03T00:33:22;5.03;;;3.10;;
62574;SDS011;53112;45.602;11.904;2023-04-03T00:35:49;5.15;;;2.85;;
62574;SDS011;53112;45.602;11.904;2023-04-03T00:38:15;4.07;;;2.78;;
62574;SDS011;53112;45.602;11.904;2023-04-03T00:40:43;4.88;;;2.95;;
62574;SDS011;53112;45.602;11.904;2023-04-03T00:43:15;4.60;;;3.17;;
62574;SDS011;53112;45.602;11.904;2023-04-03T00:45:47;4.30;;;2.97;;
62574;SDS011;53112;45.602;11.904;2023-04-03T00:48:18;4.70;;;3.17;;
62574;SDS011;53112;45.602;11.904;2023-04-03T00:50:47;6.28;;;3.08;;
62574;SDS011;53112;45.602;11.904;2023-04-03T00:53:17;6.15;;;3.40;;
62574;SDS011;53112;45.602;11.904;2023-04-03T00:55:47;4.70;;;3.20;;
62574;SDS011;53112;45.602;11.904;2023-04-03T00:58:15;4.38;;;3.00;;
62574;SDS011;53112;45.602;11.904;2023-04-03T01:00:46;5.05;;;3.05;;
62574;SDS011;53112;45.602;11.904;2023-04-03T01:03:21;6.18;;;3.60;;
62574;SDS011;53112;45.602;11.904;2023-04-03T01:05:48;5.80;;;3.47;;
62574;SDS011;53112;45.602;11.904;2023-04-03T01:08:14;4.85;;;3.17;;
62574;SDS011;53112;45.602;11.904;2023-04-03T01:10:40;5.85;;;3.53;;
62574;SDS011;53112;45.602;11.904;2023-04-03T01:13:20;6.28;;;3.90;;
62574;SDS011;53112;45.602;11.904;2023-04-03T01:15:46;4.97;;;3.28;;
62574;SDS011;53112;45.602;11.904;2023-04-03T01:18:12;4.95;;;3.00;;
62574;SDS011;53112;45.602;11.904;2023-04-03T01:25:40;4.53;;;3.10;;
62574;SDS011;53112;45.602;11.904;2023-04-03T01:28:18;4.53;;;3.20;;
62574;SDS011;53112;45.602;11.904;2023-04-03T01:30:49;4.75;;;3.22;;
62574;SDS011;53112;45.602;11.904;2023-04-03T01:33:37;4.07;;;3.05;;
62574;SDS011;53112;45.602;11.904;2023-04-03T01:36:04;4.60;;;3.10;;
62574;SDS011;53112;45.602;11.904;2023-04-03T01:38:30;4.82;;;3.00;;
62574;SDS011;53112;45.602;11.904;2023-04-03T01:40:56;4.78;;;3.03;;
62574;SDS011;53112;45.602;11.904;2023-04-03T01:43:22;4.85;;;2.97;;
62574;SDS011;53112;45.602;11.904;2023-04-03T01:45:48;5.05;;;3.10;;
62574;SDS011;53112;45.602;11.904;2023-04-03T01:48:15;4.15;;;2.85;;
62574;SDS011;53112;45.602;11.904;2023-04-03T01:50:41;3.70;;;2.80;;
62574;SDS011;53112;45.602;11.904;2023-04-03T01:53:08;4.18;;;2.88;;
62574;SDS011;53112;45.602;11.904;2023-04-03T01:55:34;5.10;;;3.00;;
62574;SDS011;53112;45.602;11.904;2023-04-03T01:58:00;4.88;;;3.20;;
62574;SDS011;53112;45.602;11.904;2023-04-03T02:00:26;5.65;;;3.35;;
62574;SDS011;53112;45.602;11.904;2023-04-03T02:02:52;5.10;;;2.90;;
62574;SDS011;53112;45.602;11.904;2023-04-03T02:05:18;4.47;;;3.03;;
62574;SDS011;53112;45.602;11.904;2023-04-03T02:07:44;4.68;;;3.10;;
62574;SDS011;53112;45.602;11.904;2023-04-03T02:10:11;5.30;;;3.20;;
62574;SDS011;53112;45.602;11.904;2023-04-03T02:12:37;5.07;;;3.15;;
62574;SDS011;53112;45.602;11.904;2023-04-03T02:15:03;3.88;;;3.00;;
62574;SDS011;53112;45.602;11.904;2023-04-03T02:17:30;4.57;;;3.03;;
62574;SDS011;53112;45.602;11.904;2023-04-03T02:19:56;4.40;;;2.85;;
62574;SDS011;53112;45.602;11.904;2023-04-03T02:22:22;3.72;;;3.00;;
62574;SDS011;53112;45.602;11.904;2023-04-03T02:24:48;4.88;;;3.20;;
62574;SDS011;53112;45.602;11.904;2023-04-03T02:27:14;4.78;;;3.20;;
62574;SDS011;53112;45.602;11.904;2023-04-03T02:29:41;4.75;;;3.10;;
62574;SDS011;53112;45.602;11.904;2023-04-03T02:32:06;5.95;;;3.58;;
62574;SDS011;53112;45.602;11.904;2023-04-03T02:34:32;3.92;;;3.20;;
62574;SDS011;53112;45.602;11.904;2023-04-03T02:36:58;4.53;;;3.08;;
62574;SDS011;53112;45.602;11.904;2023-04-03T02:39:24;5.20;;;3.17;;
62574;SDS011;53112;45.602;11.904;2023-04-03T02:41:51;5.13;;;3.00;;
62574;SDS011;53112;45.602;11.904;2023-04-03T02:44:17;5.57;;;3.33;;
62574;SDS011;53112;45.602;11.904;2023-04-03T02:46:44;3.72;;;2.88;;
62574;SDS011;53112;45.602;11.904;2023-04-03T02:49:10;6.15;;;3.42;;
62574;SDS011;53112;45.602;11.904;2023-04-03T02:51:36;5.18;;;3.17;;
62574;SDS011;53112;45.602;11.904;2023-04-03T02:54:02;5.63;;;3.20;;
62574;SDS011;53112;45.602;11.904;2023-04-03T02:56:28;4.75;;;3.10;;
62574;SDS011;53112;45.602;11.904;2023-04-03T02:58:54;3.95;;;2.90;;
62574;SDS011;53112;45.602;11.904;2023-04-03T03:01:20;3.63;;;2.80;;
62574;SDS011;53112;45.602;11.904;2023-04-03T03:03:46;5.30;;;3.05;;
62574;SDS011;53112;45.602;11.904;2023-04-03T03:06:14;4.80;;;2.90;;
62574;SDS011;53112;45.602;11.904;2023-04-03T03:08:42;4.35;;;3.10;;
62574;SDS011;53112;45.602;11.904;2023-04-03T03:11:09;4.10;;;2.80;;
62574;SDS011;53112;45.602;11.904;2023-04-03T03:13:35;4.75;;;3.15;;
62574;SDS011;53112;45.602;11.904;2023-04-03T03:16:01;3.35;;;2.78;;
62574;SDS011;53112;45.602;11.904;2023-04-03T03:18:27;4.53;;;3.20;;
62574;SDS011;53112;45.602;11.904;2023-04-03T03:20:55;4.70;;;3.30;;
62574;SDS011;53112;45.602;11.904;2023-04-03T03:23:23;5.20;;;2.83;;
62574;SDS011;53112;45.602;11.904;2023-04-03T03:25:54;3.50;;;2.60;;
62574;SDS011;53112;45.602;11.904;2023-04-03T03:28:31;4.38;;;2.95;;
62574;SDS011;53112;45.602;11.904;2023-04-03T03:30:57;3.95;;;2.90;;
62574;SDS011;53112;45.602;11.904;2023-04-03T03:33:24;3.88;;;2.72;;
62574;SDS011;53112;45.602;11.904;2023-04-03T03:35:51;4.85;;;2.92;;
62574;SDS011;53112;45.602;11.904;2023-04-03T03:38:18;4.30;;;2.95;;
62574;SDS011;53112;45.602;11.904;2023-04-03T03:40:44;3.58;;;2.50;;
62574;SDS011;53112;45.602;11.904;2023-04-03T03:43:11;4.10;;;2.90;;
62574;SDS011;53112;45.602;11.904;2023-04-03T03:45:37;3.63;;;2.80;;
62574;SDS011;53112;45.602;11.904;2023-04-03T03:48:03;4.72;;;2.95;;
62574;SDS011;53112;45.602;11.904;2023-04-03T03:50:29;4.35;;;3.00;;
62574;SDS011;53112;45.602;11.904;2023-04-03T03:52:55;3.58;;;2.72;;
62574;SDS011;53112;45.602;11.904;2023-04-03T03:55:21;4.28;;;2.80;;
62574;SDS011;53112;45.602;11.904;2023-04-03T03:57:47;3.47;;;2.65;;
62574;SDS011;53112;45.602;11.904;2023-04-03T04:00:13;4.20;;;2.75;;
62574;SDS011;53112;45.602;11.904;2023-04-03T04:02:39;4.03;;;2.80;;
62574;SDS011;53112;45.602;11.904;2023-04-03T04:05:05;3.88;;;2.80;;
62574;SDS011;53112;45.602;11.904;2023-04-03T04:07:31;3.88;;;2.70;;
62574;SDS011;53112;45.602;11.904;2023-04-03T04:09:57;4.07;;;2.72;;
62574;SDS011;53112;45.602;11.904;2023-04-03T04:12:23;3.83;;;2.80;;
62574;SDS011;53112;45.602;11.904;2023-04-03T04:14:49;3.97;;;2.80;;
62574;SDS011;53112;45.602;11.904;2023-04-03T04:17:15;3.40;;;2.75;;
62574;SDS011;53112;45.602;11.904;2023-04-03T04:19:41;3.05;;;2.45;;
62574;SDS011;53112;45.602;11.904;2023-04-03T04:22:07;3.97;;;2.55;;
62574;SDS011;53112;45.602;11.904;2023-04-03T04:24:33;3.83;;;2.50;;
62574;SDS011;53112;45.602;11.904;2023-04-03T04:26:59;3.65;;;2.40;;
62574;SDS011;53112;45.602;11.904;2023-04-03T04:29:25;3.53;;;2.50;;
62574;SDS011;53112;45.602;11.904;2023-04-03T04:31:51;4.22;;;2.65;;
62574;SDS011;53112;45.602;11.904;2023-04-03T04:34:17;4.07;;;2.85;;
62574;SDS011;53112;45.602;11.904;2023-04-03T04:36:43;3.55;;;2.47;;
62574;SDS011;53112;45.602;11.904;2023-04-03T04:39:09;3.03;;;2.40;;
62574;SDS011;53112;45.602;11.904;2023-04-03T04:41:35;4.93;;;2.90;;
62574;SDS011;53112;45.602;11.904;2023-04-03T04:44:01;4.05;;;2.50;;
62574;SDS011;53112;45.602;11.904;2023-04-03T04:46:27;4.72;;;2.80;;
62574;SDS011;53112;45.602;11.904;2023-04-03T04:48:53;2.75;;;2.45;;
62574;SDS011;53112;45.602;11.904;2023-04-03T04:51:19;3.42;;;2.53;;
62574;SDS011;53112;45.602;11.904;2023-04-03T04:53:45;4.05;;;2.40;;
62574;SDS011;53112;45.602;11.904;2023-04-03T04:56:11;3.63;;;2.38;;
62574;SDS011;53112;45.602;11.904;2023-04-03T04:58:37;4.80;;;2.70;;
62574;SDS011;53112;45.602;11.904;2023-04-03T05:01:04;2.67;;;2.30;;
62574;SDS011;53112;45.602;11.904;2023-04-03T05:03:32;3.42;;;2.45;;
62574;SDS011;53112;45.602;11.904;2023-04-03T05:05:59;4.13;;;2.50;;
62574;SDS011;53112;45.602;11.904;2023-04-03T05:08:25;3.47;;;2.58;;
62574;SDS011;53112;45.602;11.904;2023-04-03T05:10:51;4.07;;;2.60;;
62574;SDS011;53112;45.602;11.904;2023-04-03T05:13:19;3.00;;;2.40;;
62574;SDS011;53112;45.602;11.904;2023-04-03T05:15:45;3.78;;;2.40;;
62574;SDS011;53112;45.602;11.904;2023-04-03T05:18:12;5.35;;;2.58;;
62574;SDS011;53112;45.602;11.904;2023-04-03T05:20:38;3.08;;;2.22;;
62574;SDS011;53112;45.602;11.904;2023-04-03T05:23:04;2.83;;;2.30;;
62574;SDS011;53112;45.602;11.904;2023-04-03T05:25:30;3.28;;;2.40;;
62574;SDS011;53112;45.602;11.904;2023-04-03T05:27:56;3.42;;;2.45;;
62574;SDS011;53112;45.602;11.904;2023-04-03T05:30:22;3.15;;;2.40;;
62574;SDS011;53112;45.602;11.904;2023-04-03T05:32:48;2.58;;;2.17;;
62574;SDS011;53112;45.602;11.904;2023-04-03T05:35:14;3.53;;;2.40;;
62574;SDS011;53112;45.602;11.904;2023-04-03T05:37:40;2.50;;;2.20;;
62574;SDS011;53112;45.602;11.904;2023-04-03T05:40:06;3.33;;;2.30;;
62574;SDS011;53112;45.602;11.904;2023-04-03T05:42:33;2.95;;;2.17;;
62574;SDS011;53112;45.602;11.904;2023-04-03T05:47:29;5.25;;;2.38;;
62574;SDS011;53112;45.602;11.904;2023-04-03T05:49:55;2.38;;;2.17;;
62574;SDS011;53112;45.602;11.904;2023-04-03T05:52:28;2.70;;;2.30;;
62574;SDS011;53112;45.602;11.904;2023-04-03T05:54:56;3.15;;;2.17;;
62574;SDS011;53112;45.602;11.904;2023-04-03T05:57:21;3.97;;;2.20;;
62574;SDS011;53112;45.602;11.904;2023-04-03T05:59:48;4.40;;;2.20;;
62574;SDS011;53112;45.602;11.904;2023-04-03T06:02:15;2.85;;;2.20;;
62574;SDS011;53112;45.602;11.904;2023-04-03T06:04:43;2.97;;;2.30;;
62574;SDS011;53112;45.602;11.904;2023-04-03T06:07:13;3.05;;;2.03;;
62574;SDS011;53112;45.602;11.904;2023-04-03T06:09:41;4.57;;;2.33;;
62574;SDS011;53112;45.602;11.904;2023-04-03T06:12:07;2.97;;;2.00;;
62574;SDS011;53112;45.602;11.904;2023-04-03T06:14:34;2.88;;;2.22;;
62574;SDS011;53112;45.602;11.904;2023-04-03T06:17:00;4.53;;;2.10;;
62574;SDS011;53112;45.602;11.904;2023-04-03T06:19:27;3.47;;;2.33;;
62574;SDS011;53112;45.602;11.904;2023-04-03T06:21:53;3.85;;;2.30;;
62574;SDS011;53112;45.602;11.904;2023-04-03T06:24:20;3.17;;;2.08;;
62574;SDS011;53112;45.602;11.904;2023-04-03T06:26:48;2.60;;;2.05;;
62574;SDS011;53112;45.602;11.904;2023-04-03T06:29:14;4.22;;;2.20;;
62574;SDS011;53112;45.602;11.904;2023-04-03T06:31:41;3.45;;;2.10;;
62574;SDS011;53112;45.602;11.904;2023-04-03T06:34:07;4.47;;;2.30;;
62574;SDS011;53112;45.602;11.904;2023-04-03T06:36:33;3.05;;;2.00;;
62574;SDS011;53112;45.602;11.904;2023-04-03T06:39:00;2.53;;;1.90;;
62574;SDS011;53112;45.602;11.904;2023-04-03T06:41:28;3.08;;;1.90;;
62574;SDS011;53112;45.602;11.904;2023-04-03T06:43:54;2.45;;;2.00;;
62574;SDS011;53112;45.602;11.904;2023-04-03T06:46:22;3.33;;;1.90;;
62574;SDS011;53112;45.602;11.904;2023-04-03T06:48:49;2.53;;;1.90;;
62574;SDS011;53112;45.602;11.904;2023-04-03T06:51:19;3.83;;;1.90;;
62574;SDS011;53112;45.602;11.904;2023-04-03T06:53:48;3.45;;;1.92;;
62574;SDS011;53112;45.602;11.904;2023-04-03T06:56:15;2.58;;;1.90;;
62574;SDS011;53112;45.602;11.904;2023-04-03T06:58:42;3.92;;;1.73;;
62574;SDS011;53112;45.602;11.904;2023-04-03T07:01:09;1.80;;;1.70;;
62574;SDS011;53112;45.602;11.904;2023-04-03T07:03:37;2.63;;;1.80;;
62574;SDS011;53112;45.602;11.904;2023-04-03T07:06:04;2.22;;;1.85;;
62574;SDS011;53112;45.602;11.904;2023-04-03T07:08:32;2.40;;;1.88;;
62574;SDS011;53112;45.602;11.904;2023-04-03T07:10:58;2.17;;;1.88;;
62574;SDS011;53112;45.602;11.904;2023-04-03T07:13:24;4.15;;;1.80;;
62574;SDS011;53112;45.602;11.904;2023-04-03T07:15:51;2.20;;;1.88;;
62574;SDS011;53112;45.602;11.904;2023-04-03T07:18:17;2.03;;;1.80;;
62574;SDS011;53112;45.602;11.904;2023-04-03T07:20:44;2.22;;;1.67;;
62574;SDS011;53112;45.602;11.904;2023-04-03T07:23:10;2.10;;;1.80;;
62574;SDS011;53112;45.602;11.904;2023-04-03T07:25:41;2.65;;;1.90;;
62574;SDS011;53112;45.602;11.904;2023-04-03T07:28:11;3.47;;;1.80;;
62574;SDS011;53112;45.602;11.904;2023-04-03T07:30:44;2.38;;;1.80;;
62574;SDS011;53112;45.602;11.904;2023-04-03T07:33:12;3.45;;;2.00;;
62574;SDS011;53112;45.602;11.904;2023-04-03T07:35:40;2.28;;;1.95;;
62574;SDS011;53112;45.602;11.904;2023-04-03T07:38:06;3.63;;;1.80;;
62574;SDS011;53112;45.602;11.904;2023-04-03T07:40:33;3.03;;;1.90;;
62574;SDS011;53112;45.602;11.904;2023-04-03T07:43:00;4.25;;;1.85;;
62574;SDS011;53112;45.602;11.904;2023-04-03T07:45:26;2.20;;;1.80;;
62574;SDS011;53112;45.602;11.904;2023-04-03T07:47:52;2.47;;;1.80;;
62574;SDS011;53112;45.602;11.904;2023-04-03T07:50:18;3.30;;;2.00;;
62574;SDS011;53112;45.602;11.904;2023-04-03T07:52:44;4.28;;;2.00;;
62574;SDS011;53112;45.602;11.904;2023-04-03T07:55:10;3.22;;;1.80;;
62574;SDS011;53112;45.602;11.904;2023-04-03T07:57:43;3.00;;;1.80;;
62574;SDS011;53112;45.602;11.904;2023-04-03T08:00:09;3.72;;;1.95;;
62574;SDS011;53112;45.602;11.904;2023-04-03T08:02:37;2.17;;;1.77;;
62574;SDS011;53112;45.602;11.904;2023-04-03T08:05:03;2.75;;;1.75;;
62574;SDS011;53112;45.602;11.904;2023-04-03T08:07:29;3.20;;;1.90;;
62574;SDS011;53112;45.602;11.904;2023-04-03T08:09:55;2.97;;;1.90;;
62574;SDS011;53112;45.602;11.904;2023-04-03T08:12:22;2.83;;;1.73;;
62574;SDS011;53112;45.602;11.904;2023-04-03T08:14:48;2.00;;;1.80;;
62574;SDS011;53112;45.602;11.904;2023-04-03T08:17:14;2.70;;;1.50;;
62574;SDS011;53112;45.602;11.904;2023-04-03T08:19:40;2.88;;;1.85;;
62574;SDS011;53112;45.602;11.904;2023-04-03T08:22:06;2.78;;;1.70;;
62574;SDS011;53112;45.602;11.904;2023-04-03T08:24:33;2.33;;;1.70;;
62574;SDS011;53112;45.602;11.904;2023-04-03T08:26:59;2.35;;;1.80;;
62574;SDS011;53112;45.602;11.904;2023-04-03T08:29:26;3.17;;;1.83;;
62574;SDS011;53112;45.602;11.904;2023-04-03T08:31:52;2.42;;;1.70;;
62574;SDS011;53112;45.602;11.904;2023-04-03T08:34:18;3.45;;;1.70;;
62574;SDS011;53112;45.602;11.904;2023-04-03T08:36:44;3.67;;;1.98;;
62574;SDS011;53112;45.602;11.904;2023-04-03T08:39:11;2.80;;;1.67;;
62574;SDS011;53112;45.602;11.904;2023-04-03T08:41:38;2.67;;;1.83;;
62574;SDS011;53112;45.602;11.904;2023-04-03T08:49:49;2.00;;;1.70;;
62574;SDS011;53112;45.602;11.904;2023-04-03T08:52:23;1.92;;;1.70;;
62574;SDS011;53112;45.602;11.904;2023-04-03T08:54:52;2.55;;;1.85;;
62574;SDS011;53112;45.602;11.904;2023-04-03T09:00:00;4.15;;;1.83;;
62574;SDS011;53112;45.602;11.904;2023-04-03T09:02:34;2.72;;;1.80;;
62574;SDS011;53112;45.602;11.904;2023-04-03T09:05:32;2.38;;;1.70;;
62574;SDS011;53112;45.602;11.904;2023-04-03T09:10:37;4.82;;;2.25;;
62574;SDS011;53112;45.602;11.904;2023-04-03T09:13:07;1.85;;;1.73;;
62574;SDS011;53112;45.602;11.904;2023-04-03T09:15:37;3.15;;;1.75;;
62574;SDS011;53112;45.602;11.904;2023-04-03T09:18:13;3.13;;;1.83;;
62574;SDS011;53112;45.602;11.904;2023-04-03T09:20:49;2.67;;;1.70;;
62574;SDS011;53112;45.602;11.904;2023-04-03T09:23:35;4.13;;;1.50;;
62574;SDS011;53112;45.602;11.904;2023-04-03T09:28:45;2.28;;;1.70;;
62574;SDS011;53112;45.602;11.904;2023-04-03T09:31:21;1.95;;;1.73;;
62574;SDS011;53112;45.602;11.904;2023-04-03T09:33:50;2.35;;;1.77;;
62574;SDS011;53112;45.602;11.904;2023-04-03T09:36:40;2.67;;;1.70;;
62574;SDS011;53112;45.602;11.904;2023-04-03T09:39:14;2.53;;;1.70;;
62574;SDS011;53112;45.602;11.904;2023-04-03T09:41:54;2.75;;;1.60;;
62574;SDS011;53112;45.602;11.904;2023-04-03T09:44:30;2.70;;;1.55;;
62574;SDS011;53112;45.602;11.904;2023-04-03T09:47:23;5.20;;;1.80;;
62574;SDS011;53112;45.602;11.904;2023-04-03T09:49:54;3.00;;;1.70;;
62574;SDS011;53112;45.602;11.904;2023-04-03T09:52:34;2.75;;;1.80;;
62574;SDS011;53112;45.602;11.904;2023-04-03T09:55:22;3.58;;;1.83;;
62574;SDS011;53112;45.602;11.904;2023-04-03T09:57:59;3.63;;;1.70;;
62574;SDS011;53112;45.602;11.904;2023-04-03T10:00:31;2.10;;;1.77;;
62574;SDS011;53112;45.602;11.904;2023-04-03T10:03:01;4.53;;;2.08;;
62574;SDS011;53112;45.602;11.904;2023-04-03T10:05:34;3.55;;;1.88;;
62574;SDS011;53112;45.602;11.904;2023-04-03T10:08:08;3.65;;;2.00;;
62574;SDS011;53112;45.602;11.904;2023-04-03T10:13:03;2.55;;;1.70;;
62574;SDS011;53112;45.602;11.904;2023-04-03T10:16:03;1.60;;;1.50;;
62574;SDS011;53112;45.602;11.904;2023-04-03T10:21:52;3.30;;;2.10;;
62574;SDS011;53112;45.602;11.904;2023-04-03T10:24:31;4.18;;;2.00;;
62574;SDS011;53112;45.602;11.904;2023-04-03T10:27:11;4.22;;;2.10;;
62574;SDS011;53112;45.602;11.904;2023-04-03T10:29:51;2.80;;;2.10;;
62574;SDS011;53112;45.602;11.904;2023-04-03T10:35:52;2.90;;;1.80;;
62574;SDS011;53112;45.602;11.904;2023-04-03T10:43:46;3.47;;;2.00;;
62574;SDS011;53112;45.602;11.904;2023-04-03T10:51:23;4.30;;;2.17;;
62574;SDS011;53112;45.602;11.904;2023-04-03T10:54:05;3.55;;;2.17;;
62574;SDS011;53112;45.602;11.904;2023-04-03T10:56:57;3.33;;;1.95;;
62574;SDS011;53112;45.602;11.904;2023-04-03T10:59:50;3.22;;;2.10;;
62574;SDS011;53112;45.602;11.904;2023-04-03T11:02:26;2.63;;;1.90;;
62574;SDS011;53112;45.602;11.904;2023-04-03T11:05:17;2.58;;;1.98;;
62574;SDS011;53112;45.602;11.904;2023-04-03T11:07:56;2.97;;;1.70;;
62574;SDS011;53112;45.602;11.904;2023-04-03T11:13:11;4.60;;;2.00;;
62574;SDS011;53112;45.602;11.904;2023-04-03T11:15:42;4.57;;;1.90;;
62574;SDS011;53112;45.602;11.904;2023-04-03T11:18:18;3.80;;;1.92;;
62574;SDS011;53112;45.602;11.904;2023-04-03T11:23:55;4.00;;;1.80;;
62574;SDS011;53112;45.602;11.904;2023-04-03T11:26:27;4.53;;;1.70;;
62574;SDS011;53112;45.602;11.904;2023-04-03T11:28:59;2.60;;;1.67;;
62574;SDS011;53112;45.602;11.904;2023-04-03T11:34:37;3.78;;;2.00;;
62574;SDS011;53112;45.602;11.904;2023-04-03T11:37:27;3.58;;;2.03;;
62574;SDS011;53112;45.602;11.904;2023-04-03T11:40:08;4.30;;;1.80;;
62574;SDS011;53112;45.602;11.904;2023-04-03T11:42:40;5.35;;;1.77;;
62574;SDS011;53112;45.602;11.904;2023-04-03T11:47:59;4.60;;;1.90;;
62574;SDS011;53112;45.602;11.904;2023-04-03T11:58:10;2.95;;;1.80;;
62574;SDS011;53112;45.602;11.904;2023-04-03T12:05:55;1.95;;;1.60;;
62574;SDS011;53112;45.602;11.904;2023-04-03T12:18:55;3.45;;;1.83;;
62574;SDS011;53112;45.602;11.904;2023-04-03T12:38:00;2.00;;;1.77;;
62574;SDS011;53112;45.602;11.904;2023-04-03T12:48:37;2.33;;;1.80;;
62574;SDS011;53112;45.602;11.904;2023-04-03T12:51:13;2.25;;;1.60;;
62574;SDS011;53112;45.602;11.904;2023-04-03T12:53:43;2.92;;;1.63;;
62574;SDS011;53112;45.602;11.904;2023-04-03T12:58:49;2.78;;;1.55;;
62574;SDS011;53112;45.602;11.904;2023-04-03T13:01:16;3.58;;;1.70;;
62574;SDS011;53112;45.602;11.904;2023-04-03T13:03:47;2.42;;;1.70;;
62574;SDS011;53112;45.602;11.904;2023-04-03T13:06:17;3.20;;;1.65;;
62574;SDS011;53112;45.602;11.904;2023-04-03T13:08:54;2.50;;;1.67;;
62574;SDS011;53112;45.602;11.904;2023-04-03T13:11:22;1.98;;;1.58;;
62574;SDS011;53112;45.602;11.904;2023-04-03T13:14:00;2.60;;;1.70;;
62574;SDS011;53112;45.602;11.904;2023-04-03T13:16:30;3.17;;;1.70;;
62574;SDS011;53112;45.602;11.904;2023-04-03T13:18:58;2.40;;;1.90;;
62574;SDS011;53112;45.602;11.904;2023-04-03T13:21:28;2.85;;;1.77;;
62574;SDS011;53112;45.602;11.904;2023-04-03T13:26:25;1.83;;;1.73;;
62574;SDS011;53112;45.602;11.904;2023-04-03T13:28:59;2.00;;;1.75;;
62574;SDS011;53112;45.602;11.904;2023-04-03T13:31:29;2.03;;;1.63;;
62574;SDS011;53112;45.602;11.904;2023-04-03T13:34:02;2.10;;;1.50;;
62574;SDS011;53112;45.602;11.904;2023-04-03T13:36:36;2.47;;;1.80;;
62574;SDS011;53112;45.602;11.904;2023-04-03T13:39:20;3.25;;;1.80;;
62574;SDS011;53112;45.602;11.904;2023-04-03T13:41:56;2.25;;;1.65;;
62574;SDS011;53112;45.602;11.904;2023-04-03T13:44:34;2.13;;;1.70;;
62574;SDS011;53112;45.602;11.904;2023-04-03T13:55:18;1.75;;;1.65;;
62574;SDS011;53112;45.602;11.904;2023-04-03T13:57:56;1.95;;;1.60;;
62574;SDS011;53112;45.602;11.904;2023-04-03T14:00:48;1.70;;;1.60;;
62574;SDS011;53112;45.602;11.904;2023-04-03T14:05:56;3.20;;;2.00;;
62574;SDS011;53112;45.602;11.904;2023-04-03T14:08:23;2.38;;;1.75;;
62574;SDS011;53112;45.602;11.904;2023-04-03T14:10:49;2.03;;;1.80;;
62574;SDS011;53112;45.602;11.904;2023-04-03T14:13:17;2.60;;;1.80;;
62574;SDS011;53112;45.602;11.904;2023-04-03T14:15:45;2.25;;;1.88;;
62574;SDS011;53112;45.602;11.904;2023-04-03T14:18:15;1.98;;;1.67;;
62574;SDS011;53112;45.602;11.904;2023-04-03T14:20:43;2.63;;;1.85;;
62574;SDS011;53112;45.602;11.904;2023-04-03T14:23:09;2.15;;;1.45;;
62574;SDS011;53112;45.602;11.904;2023-04-03T14:25:36;1.95;;;1.60;;
62574;SDS011;53112;45.602;11.904;2023-04-03T14:28:19;4.10;;;1.67;;
62574;SDS011;53112;45.602;11.904;2023-04-03T14:30:49;1.70;;;1.60;;
62574;SDS011;53112;45.602;11.904;2023-04-03T14:33:16;2.65;;;1.73;;
62574;SDS011;53112;45.602;11.904;2023-04-03T14:35:45;1.77;;;1.67;;
62574;SDS011;53112;45.602;11.904;2023-04-03T14:38:16;2.65;;;1.60;;
62574;SDS011;53112;45.602;11.904;2023-04-03T14:40:51;1.70;;;1.58;;
62574;SDS011;53112;45.602;11.904;2023-04-03T14:43:18;3.10;;;1.70;;
62574;SDS011;53112;45.602;11.904;2023-04-03T14:45:45;2.33;;;1.60;;
62574;SDS011;53112;45.602;11.904;2023-04-03T14:48:21;1.92;;;1.60;;
62574;SDS011;53112;45.602;11.904;2023-04-03T14:50:49;3.05;;;1.60;;
62574;SDS011;53112;45.602;11.904;2023-04-03T14:53:16;2.00;;;1.48;;
62574;SDS011;53112;45.602;11.904;2023-04-03T14:55:46;5.60;;;1.90;;
62574;SDS011;53112;45.602;11.904;2023-04-03T14:58:16;4.28;;;1.50;;
62574;SDS011;53112;45.602;11.904;2023-04-03T15:00:43;3.90;;;1.80;;
62574;SDS011;53112;45.602;11.904;2023-04-03T15:03:17;4.15;;;1.58;;
62574;SDS011;53112;45.602;11.904;2023-04-03T15:05:45;4.28;;;1.60;;
62574;SDS011;53112;45.602;11.904;2023-04-03T15:08:16;4.95;;;1.73;;
62574;SDS011;53112;45.602;11.904;2023-04-03T15:10:47;4.28;;;1.60;;
62574;SDS011;53112;45.602;11.904;2023-04-03T15:13:14;6.78;;;1.73;;
62574;SDS011;53112;45.602;11.904;2023-04-03T15:15:40;3.42;;;1.70;;
62574;SDS011;53112;45.602;11.904;2023-04-03T15:18:09;3.03;;;1.60;;
62574;SDS011;53112;45.602;11.904;2023-04-03T15:20:40;4.72;;;1.70;;
62574;SDS011;53112;45.602;11.904;2023-04-03T15:23:06;3.53;;;1.52;;
62574;SDS011;53112;45.602;11.904;2023-04-03T15:25:32;2.90;;;1.67;;
62574;SDS011;53112;45.602;11.904;2023-04-03T15:27:58;2.65;;;1.60;;
62574;SDS011;53112;45.602;11.904;2023-04-03T15:30:25;2.00;;;1.58;;
62574;SDS011;53112;45.602;11.904;2023-04-03T15:32:51;1.70;;;1.30;;
62574;SDS011;53112;45.602;11.904;2023-04-03T15:35:18;2.47;;;1.50;;
62574;SDS011;53112;45.602;11.904;2023-04-03T15:37:44;2.47;;;1.63;;
62574;SDS011;53112;45.602;11.904;2023-04-03T15:40:10;2.67;;;1.48;;
62574;SDS011;53112;45.602;11.904;2023-04-03T15:42:37;2.42;;;1.60;;
62574;SDS011;53112;45.602;11.904;2023-04-03T15:45:03;1.50;;;1.40;;
62574;SDS011;53112;45.602;11.904;2023-04-03T15:47:30;3.20;;;1.52;;
62574;SDS011;53112;45.602;11.904;2023-04-03T15:49:56;5.20;;;1.90;;
62574;SDS011;53112;45.602;11.904;2023-04-03T15:52:22;3.00;;;1.70;;
62574;SDS011;53112;45.602;11.904;2023-04-03T15:54:48;1.60;;;1.50;;
62574;SDS011;53112;45.602;11.904;2023-04-03T15:57:14;3.05;;;1.63;;
62574;SDS011;53112;45.602;11.904;2023-04-03T15:59:39;2.70;;;1.52;;
62574;SDS011;53112;45.602;11.904;2023-04-03T16:02:06;3.40;;;1.60;;
62574;SDS011;53112;45.602;11.904;2023-04-03T16:04:38;3.83;;;1.70;;
62574;SDS011;53112;45.602;11.904;2023-04-03T16:07:04;2.75;;;1.52;;
62574;SDS011;53112;45.602;11.904;2023-04-03T16:09:31;3.50;;;1.60;;
62574;SDS011;53112;45.602;11.904;2023-04-03T16:11:59;4.10;;;1.80;;
62574;SDS011;53112;45.602;11.904;2023-04-03T16:14:25;3.47;;;1.70;;
62574;SDS011;53112;45.602;11.904;2023-04-03T16:16:53;2.47;;;1.50;;
62574;SDS011;53112;45.602;11.904;2023-04-03T16:19:20;2.55;;;1.50;;
62574;SDS011;53112;45.602;11.904;2023-04-03T16:21:46;3.47;;;1.52;;
62574;SDS011;53112;45.602;11.904;2023-04-03T16:24:12;2.00;;;1.50;;
62574;SDS011;53112;45.602;11.904;2023-04-03T16:26:38;3.90;;;1.60;;
62574;SDS011;53112;45.602;11.904;2023-04-03T16:29:04;1.95;;;1.42;;
62574;SDS011;53112;45.602;11.904;2023-04-03T16:31:30;3.20;;;1.60;;
62574;SDS011;53112;45.602;11.904;2023-04-03T16:33:58;2.45;;;1.50;;
62574;SDS011;53112;45.602;11.904;2023-04-03T16:36:26;2.28;;;1.60;;
62574;SDS011;53112;45.602;11.904;2023-04-03T16:38:52;3.28;;;1.63;;
62574;SDS011;53112;45.602;11.904;2023-04-03T16:41:18;1.52;;;1.40;;